createdAt,value
2022-10-17T00:05:07.666Z,101430.63
2022-10-17T00:10:29.458Z,101421.44
2022-10-17T00:15:51.259Z,101422.53
2022-10-17T00:21:17.582Z,101425.28
2022-10-17T00:26:39.240Z,101426.38
2022-10-17T00:32:00.872Z,101418.31
2022-10-17T00:37:22.508Z,101416.88
2022-10-17T00:42:44.266Z,101422.44
2022-10-17T00:48:09.065Z,101432.69
2022-10-17T00:53:30.928Z,101423.78
2022-10-17T00:58:52.707Z,101429.34
2022-10-17T01:04:14.622Z,101421.22
2022-10-17T01:09:37.242Z,101418.69
2022-10-17T01:15:22.964Z,101414.84
2022-10-17T01:21:16.450Z,101413.38
2022-10-17T01:26:44.015Z,101419.19
2022-10-17T01:32:28.327Z,101420.00
2022-10-17T01:38:11.446Z,101423.03
2022-10-17T01:43:59.287Z,101430.28
2022-10-17T01:49:25.585Z,101417.75
2022-10-17T01:54:52.945Z,101417.13
2022-10-17T02:00:19.808Z,101419.66
2022-10-17T02:05:43.154Z,101410.72
2022-10-17T02:11:12.772Z,101409.06
2022-10-17T02:17:06.747Z,101409.91
2022-10-17T02:22:43.823Z,101398.19
2022-10-17T02:28:29.186Z,101405.69
2022-10-17T02:33:59.977Z,101394.78
2022-10-17T02:39:23.625Z,101407.00
2022-10-17T02:44:46.483Z,101397.81
2022-10-17T02:50:08.561Z,101401.69
2022-10-17T02:55:39.274Z,101402.53
2022-10-17T03:01:01.262Z,101398.06
2022-10-17T03:06:22.891Z,101397.19
2022-10-17T03:11:44.572Z,101405.53
2022-10-17T03:17:06.274Z,101407.47
2022-10-17T03:22:28.203Z,101394.66
2022-10-17T03:27:50.259Z,101399.38
2022-10-17T03:33:12.079Z,101417.97
2022-10-17T03:38:34.683Z,101413.50
2022-10-17T03:43:56.434Z,101417.38
2022-10-17T03:49:18.075Z,101407.94
2022-10-17T03:54:40.169Z,101405.44
2022-10-17T04:00:02.124Z,101414.84
2022-10-17T04:05:23.877Z,101431.50
2022-10-17T04:10:45.648Z,101440.66
2022-10-17T04:16:11.979Z,101451.78
2022-10-17T04:21:33.635Z,101456.72
2022-10-17T04:26:55.413Z,101472.56
2022-10-17T04:32:17.383Z,101469.78
2022-10-17T04:37:39.045Z,101466.13
2022-10-17T04:43:00.888Z,101456.97
2022-10-17T04:48:22.671Z,101467.22
2022-10-17T04:53:45.143Z,101474.72
2022-10-17T04:59:06.887Z,101473.03
2022-10-17T05:04:28.555Z,101480.28
2022-10-17T05:09:50.211Z,101503.31
2022-10-17T05:15:11.907Z,101508.03
2022-10-17T05:20:33.898Z,101508.88
2022-10-17T05:25:56.032Z,101503.56
2022-10-17T05:31:17.998Z,101498.00
2022-10-17T05:36:39.644Z,101505.50
2022-10-17T05:42:01.416Z,101504.66
2022-10-17T05:47:23.098Z,101510.22
2022-10-17T05:52:46.512Z,101508.50
2022-10-17T05:58:11.761Z,101508.50
2022-10-17T06:03:39.615Z,101520.47
2022-10-17T06:09:01.285Z,101523.47
2022-10-17T06:14:22.973Z,101525.44
2022-10-17T06:19:47.803Z,101519.88
2022-10-17T06:25:09.886Z,101535.66
2022-10-17T06:30:31.680Z,101541.22
2022-10-17T06:35:54.873Z,101542.09
2022-10-17T06:41:19.372Z,101541.22
2022-10-17T06:46:41.201Z,101548.72
2022-10-17T06:52:02.939Z,101560.66
2022-10-17T06:57:24.691Z,101571.75
2022-10-17T07:02:46.348Z,101582.88
2022-10-17T07:08:08.888Z,101642.25
2022-10-17T07:13:30.937Z,101652.53
2022-10-17T07:18:55.038Z,101667.50
2022-10-17T07:24:16.777Z,101672.22
2022-10-17T07:29:38.512Z,101680.53
2022-10-17T07:35:00.152Z,101690.78
2022-10-17T07:40:21.853Z,101701.06
2022-10-17T07:45:43.491Z,101726.03
2022-10-17T07:51:07.609Z,101747.41
2022-10-17T07:56:29.838Z,101766.00
2022-10-17T08:01:51.521Z,101779.03
2022-10-17T08:07:21.868Z,101779.03
2022-10-17T08:12:45.088Z,101788.44
2022-10-17T08:18:06.759Z,101772.63
2022-10-17T08:23:29.342Z,101759.81
2022-10-17T08:28:51.025Z,101747.03
2022-10-17T08:34:12.723Z,101774.78
2022-10-17T08:39:34.352Z,101793.38
2022-10-17T08:45:11.087Z,101826.47
2022-10-17T08:50:58.144Z,101814.53
2022-10-17T08:56:44.438Z,101776.94
2022-10-17T09:02:53.352Z,101764.75
2022-10-17T09:08:23.402Z,101781.66
2022-10-17T09:14:23.767Z,101794.22
2022-10-17T09:20:10.111Z,101778.66
2022-10-17T09:25:41.829Z,101760.28
2022-10-17T09:31:05.754Z,101763.06
2022-10-17T09:36:35.121Z,101756.44
2022-10-17T09:41:59.577Z,101768.00
2022-10-17T09:47:43.634Z,101778.66
2022-10-17T09:53:21.637Z,101821.38
2022-10-17T09:58:46.864Z,101836.56
2022-10-17T10:04:16.539Z,101844.66
2022-10-17T10:09:40.214Z,101846.59
2022-10-17T10:15:02.281Z,101856.84
2022-10-17T10:20:31.569Z,101871.34
2022-10-17T10:25:59.258Z,101882.44
2022-10-17T10:31:28.283Z,101884.16
2022-10-17T10:37:06.569Z,101886.28
2022-10-17T10:42:34.623Z,101896.56
2022-10-17T10:47:59.479Z,101896.56
2022-10-17T10:53:35.123Z,101894.63
2022-10-17T10:59:09.199Z,101908.50
2022-10-17T11:04:42.489Z,101914.94
2022-10-17T11:10:25.817Z,101924.31
2022-10-17T11:15:53.621Z,101932.03
2022-10-17T11:21:37.246Z,101937.34
2022-10-17T11:27:01.366Z,101944.84
2022-10-17T11:32:40.290Z,101948.44
2022-10-17T11:38:04.612Z,101939.53
2022-10-17T11:43:32.706Z,101955.06
2022-10-17T11:49:05.408Z,101955.06
2022-10-17T11:54:35.119Z,101956.78
2022-10-17T12:00:35.839Z,101975.13
2022-10-17T12:06:08.545Z,101974.31
2022-10-17T12:11:36.406Z,101987.09
2022-10-17T12:16:58.123Z,101991.78
2022-10-17T12:22:28.703Z,101997.97
2022-10-17T12:27:51.336Z,102011.66
2022-10-17T12:33:12.959Z,102016.09
2022-10-17T12:38:34.603Z,102015.25
2022-10-17T12:43:56.436Z,102032.75
2022-10-17T12:49:38.278Z,102033.63
2022-10-17T12:55:13.049Z,102049.41
2022-10-17T13:01:11.552Z,102049.22
2022-10-17T13:06:38.032Z,102053.06
2022-10-17T13:12:05.336Z,102060.53
2022-10-17T13:17:30.860Z,102066.06
2022-10-17T13:22:52.843Z,102077.19
2022-10-17T13:28:14.546Z,102078.06
2022-10-17T13:33:39.424Z,102085.31
2022-10-17T13:39:12.275Z,102085.94
2022-10-17T13:44:38.531Z,102100.03
2022-10-17T13:50:12.753Z,102103.66
2022-10-17T13:56:26.377Z,102122.03
2022-10-17T14:01:45.206Z,102128.66
2022-10-17T14:07:19.533Z,102120.31
2022-10-17T14:12:43.648Z,102126.50
2022-10-17T14:18:09.426Z,102127.59
2022-10-17T14:23:31.093Z,102120.31
2022-10-17T14:29:07.287Z,102115.41
2022-10-17T14:34:31.276Z,102116.28
2022-10-17T14:39:55.285Z,102113.28
2022-10-17T14:45:23.799Z,102130.81
2022-10-17T14:51:07.154Z,102132.50
2022-10-17T14:56:37.643Z,102151.09
2022-10-17T15:01:59.319Z,102172.47
2022-10-17T15:07:22.296Z,102165.19
2022-10-17T15:12:52.033Z,102187.41
2022-10-17T15:18:20.773Z,102188.25
2022-10-17T15:23:43.143Z,102189.13
2022-10-17T15:29:05.253Z,102192.97
2022-10-17T15:34:26.953Z,102202.13
2022-10-17T15:39:53.595Z,102198.53
2022-10-17T15:45:17.937Z,102202.38
2022-10-17T15:50:39.710Z,102206.22
2022-10-17T15:56:02.236Z,102209.00
2022-10-17T16:01:27.130Z,102212.16
2022-10-17T16:06:49.401Z,102214.75
2022-10-17T16:12:15.654Z,102223.69
2022-10-17T16:17:37.389Z,102226.47
2022-10-17T16:23:02.452Z,102224.09
2022-10-17T16:28:24.226Z,102228.34
2022-10-17T16:33:46.002Z,102227.28
2022-10-17T16:39:08.026Z,102228.34
2022-10-17T16:44:29.693Z,102233.91
2022-10-17T16:49:51.444Z,102238.38
2022-10-17T16:55:13.554Z,102243.94
2022-10-17T17:00:35.314Z,102252.28
2022-10-17T17:05:57.229Z,102258.66
2022-10-17T17:11:22.818Z,102268.09
2022-10-17T17:16:44.553Z,102264.69
2022-10-17T17:22:06.203Z,102269.81
2022-10-17T17:27:29.117Z,102284.34
2022-10-17T17:32:51.057Z,102274.50
2022-10-17T17:38:12.731Z,102283.59
2022-10-17T17:43:35.810Z,102293.44
2022-10-17T17:48:57.560Z,102292.44
2022-10-17T17:54:19.236Z,102298.31
2022-10-17T17:59:41.618Z,102302.53
2022-10-17T18:05:03.392Z,102304.63
2022-10-17T18:10:25.115Z,102304.38
2022-10-17T18:15:47.093Z,102312.72
2022-10-17T18:21:09.962Z,102318.09
2022-10-17T18:26:31.913Z,102317.41
2022-10-17T18:31:53.626Z,102321.00
2022-10-17T18:37:15.414Z,102317.44
2022-10-17T18:42:37.080Z,102321.31
2022-10-17T18:47:58.768Z,102327.78
2022-10-17T18:53:20.397Z,102333.81
2022-10-17T18:58:42.839Z,102337.00
2022-10-17T19:04:04.764Z,102344.09
2022-10-17T19:09:26.447Z,102347.94
2022-10-17T19:14:50.939Z,102353.50
2022-10-17T19:20:12.621Z,102350.97
2022-10-17T19:25:34.371Z,102344.09
2022-10-17T19:30:56.065Z,102347.50
2022-10-17T19:36:18.077Z,102358.16
2022-10-17T19:41:44.141Z,102360.34
2022-10-17T19:47:05.789Z,102362.81
2022-10-17T19:52:28.307Z,102374.41
2022-10-17T19:57:50.176Z,102375.34
2022-10-17T20:03:11.822Z,102363.09
2022-10-17T20:08:33.558Z,102369.09
2022-10-17T20:13:56.465Z,102379.34
2022-10-17T20:19:18.719Z,102378.31
2022-10-17T20:24:40.437Z,102379.25
2022-10-17T20:30:02.647Z,102386.78
2022-10-17T20:35:24.736Z,102392.66
2022-10-17T20:40:46.476Z,102378.19
2022-10-17T20:46:29.571Z,102383.13
2022-10-17T20:51:57.241Z,102381.72
2022-10-17T20:57:18.873Z,102385.63
2022-10-17T21:02:40.505Z,102401.28
2022-10-17T21:08:02.834Z,102395.78
2022-10-17T21:13:24.486Z,102409.50
2022-10-17T21:18:46.634Z,102424.97
2022-10-17T21:24:14.735Z,102419.81
2022-10-17T21:29:36.393Z,102422.38
2022-10-17T21:34:58.147Z,102429.50
2022-10-17T21:40:19.935Z,102426.09
2022-10-17T21:45:41.802Z,102429.31
2022-10-17T21:51:05.906Z,102423.56
2022-10-17T21:56:29.074Z,102435.53
2022-10-17T22:01:50.864Z,102443.88
2022-10-17T22:07:12.545Z,102440.03
2022-10-17T22:12:34.263Z,102436.16
2022-10-17T22:17:56.438Z,102452.41
2022-10-17T22:23:18.113Z,102451.53
2022-10-17T22:28:41.208Z,102448.13
2022-10-17T22:34:05.208Z,102445.81
2022-10-17T22:39:27.271Z,102449.88
2022-10-17T22:44:49.864Z,102461.22
2022-10-17T22:50:11.569Z,102464.44
2022-10-17T22:55:33.229Z,102461.03
2022-10-17T23:00:55.716Z,102461.25
2022-10-17T23:06:18.047Z,102448.66
2022-10-17T23:11:39.700Z,102446.09
2022-10-17T23:17:01.405Z,102442.69
2022-10-17T23:22:23.168Z,102451.25
2022-10-17T23:27:44.895Z,102453.38
2022-10-17T23:33:07.347Z,102454.47
2022-10-17T23:38:29.088Z,102457.47
2022-10-17T23:43:51.410Z,102448.28
2022-10-17T23:49:13.188Z,102439.31
2022-10-17T23:54:34.993Z,102443.16
2022-10-17T23:59:56.711Z,102438.91
